CYNE

Norway House Airport

Norway House, Manitoba, Canada
METAR CYNE 251400Z AUTO 17004KT 9SM OVC044 03/02 A2984 RMK SLP117
Observed Flight Rules
Sep-25 @ 14:00 UTC (an hour ago) Visual Flight Rules
Wind Visibility Clouds
170° at 4 knots 9 miles
  • Overcast at 4,400' AGL
Temperatures Readings
Current 3°C / 37°F
Dewpoint 2°C / 36°F
Humidity 93%
Altimeter 29.84" Hg
Pressure 1011.7 hPa
Elevation 223
METAR CYNE 251400Z AUTO 17004KT 9SM OVC044 03/02 A2984 RMK SLP117
Observed Flight Rules
Sep-25 @ 14:00 UTC
(an hour ago)
VFR
Wind Visibility
170° at 4 knots 9 miles
Clouds
  • Overcast at 4,400' AGL
Temperature Dewpoint
3°C / 37°F 2°C / 36°F
Humidity Altimeter Pressure
93% 29.84" Hg 1011.7 hPa